Time;durP1;ratioP1;P1;durP2;ratioP2;P2;SDS_P1;SDS_P2;PMS_P1;PMS_P2;Temp;Humidity;BMP_temperature;BMP_pressure;BME280_temperature;BME280_humidity;BME280_pressure;Samples;Min_cycle;Max_cycle;Signal;HPM_P1;HPM_P2
2021/06/04 00:00:59;;;;;;;4.72;3.58;;;18.20;1.00;;;;;;4992851;28;20030;-78
2021/06/04 00:03:25;;;;;;;3.90;3.50;;;18.20;1.00;;;;;;4993883;28;20032;-79
2021/06/04 00:05:53;;;;;;;3.50;3.25;;;18.10;1.00;;;;;;4996801;28;20037;-78
2021/06/04 00:08:21;;;;;;;4.28;3.88;;;18.10;1.00;;;;;;5018564;28;20027;-76
2021/06/04 00:11:05;;;;;;;4.00;3.55;;;18.10;1.00;;;;;;5000572;28;20062;-78
2021/06/04 00:13:39;;;;;;;5.38;3.40;;;18.00;1.00;;;;;;4996765;28;20023;-78
2021/06/04 00:16:29;;;;;;;4.72;3.40;;;18.00;1.00;;;;;;4996675;28;20030;-78
2021/06/04 00:18:55;;;;;;;7.80;3.67;;;17.90;1.00;;;;;;4995396;28;20033;-80
2021/06/04 00:21:27;;;;;;;6.03;3.33;;;17.90;1.00;;;;;;4997107;28;20022;-78
2021/06/04 00:23:54;;;;;;;4.70;3.38;;;17.90;1.00;;;;;;4996838;28;20397;-77
2021/06/04 00:26:21;;;;;;;4.45;3.53;;;17.90;1.00;;;;;;4995862;28;20080;-79
2021/06/04 00:28:47;;;;;;;3.72;2.97;;;17.80;1.00;;;;;;4996815;28;20581;-77
2021/06/04 00:31:13;;;;;;;5.25;3.33;;;17.80;1.00;;;;;;4995976;28;20113;-78
2021/06/04 00:33:39;;;;;;;3.88;3.55;;;17.80;1.00;;;;;;4996627;28;20455;-78
2021/06/04 00:36:06;;;;;;;4.72;3.60;;;17.80;1.00;;;;;;4996377;28;20026;-78
2021/06/04 00:38:32;;;;;;;4.60;3.20;;;17.80;1.00;;;;;;4996748;28;20105;-77
2021/06/04 00:41:03;;;;;;;4.75;4.00;;;17.80;1.00;;;;;;5009222;28;20023;-77
2021/06/04 00:43:29;;;;;;;6.22;4.15;;;17.70;1.00;;;;;;5015391;28;20050;-77
2021/06/04 00:45:59;;;;;;;6.05;3.72;;;17.70;1.00;;;;;;5018516;28;20019;-77
2021/06/04 00:48:27;;;;;;;3.97;3.58;;;17.60;1.00;;;;;;5018511;28;20036;-76
2021/06/04 00:51:23;;;;;;;5.85;3.75;;;17.70;1.00;;;;;;5019747;28;20081;-77
2021/06/04 00:53:51;;;;;;;3.97;3.58;;;17.70;1.00;;;;;;5019629;28;20014;-77
2021/06/04 00:56:18;;;;;;;5.45;4.40;;;17.60;1.00;;;;;;5018850;28;20025;-77
2021/06/04 00:58:47;;;;;;;3.70;3.40;;;17.60;1.00;;;;;;5002089;28;20479;-79
2021/06/04 01:01:17;;;;;;;4.53;3.38;;;17.60;1.00;;;;;;4994818;28;20113;-78
2021/06/04 01:03:47;;;;;;;3.97;3.65;;;17.60;1.00;;;;;;4994761;28;20031;-78
2021/06/04 01:06:30;;;;;;;4.43;4.03;;;17.50;1.00;;;;;;4995252;28;20027;-78
2021/06/04 01:09:09;;;;;;;4.45;3.13;;;17.50;1.00;;;;;;4995398;28;20038;-79
2021/06/04 01:12:19;;;;;;;3.53;3.20;;;17.50;1.00;;;;;;4995633;28;20069;-77
2021/06/04 01:15:06;;;;;;;3.60;3.05;;;17.50;1.00;;;;;;4984093;28;20030;-77
2021/06/04 01:18:07;;;;;;;4.93;3.53;;;17.50;1.00;;;;;;4995625;28;20030;-79
2021/06/04 01:20:40;;;;;;;;;;;17.40;1.00;;;;;;5001951;28;20030;-78
2021/06/04 01:23:33;;;;;;;3.70;3.40;;;17.40;1.00;;;;;;5018945;28;19913;-76
2021/06/04 01:26:23;;;;;;;4.20;3.80;;;17.40;1.00;;;;;;5018007;28;20014;-78
2021/06/04 01:28:52;;;;;;;3.88;3.42;;;17.40;1.00;;;;;;5018407;28;20050;-78
2021/06/04 01:31:32;;;;;;;3.55;3.35;;;17.40;1.00;;;;;;5017685;28;20034;-76
2021/06/04 01:34:15;;;;;;;4.00;3.50;;;17.40;1.00;;;;;;5004194;28;20022;-78
2021/06/04 01:36:51;;;;;;;3.80;3.47;;;17.40;1.00;;;;;;4995226;28;20037;-78
2021/06/04 01:39:28;;;;;;;4.15;3.85;;;17.30;1.00;;;;;;4995739;28;20054;-78
2021/06/04 01:41:56;;;;;;;7.13;4.53;;;17.30;1.00;;;;;;4997330;28;20030;-77
2021/06/04 01:44:37;;;;;;;5.40;3.38;;;17.30;1.00;;;;;;4994014;28;20430;-79
2021/06/04 01:47:04;;;;;;;;;;;17.30;1.00;;;;;;4994492;28;20030;-78
2021/06/04 01:49:36;;;;;;;5.50;4.55;;;17.30;1.00;;;;;;4994452;28;19964;-78
2021/06/04 01:52:15;;;;;;;9.88;3.95;;;17.30;1.00;;;;;;4994680;28;20026;-79
2021/06/04 01:54:47;;;;;;;4.88;4.38;;;17.30;1.00;;;;;;4995603;28;20097;-79
2021/06/04 01:57:17;;;;;;;4.75;4.15;;;17.30;1.00;;;;;;5005242;28;20045;-77
2021/06/04 01:59:49;;;;;;;9.70;8.90;;;17.20;1.00;;;;;;5005760;28;20443;-78
2021/06/04 02:02:15;;;;;;;9.35;8.35;;;17.30;1.00;;;;;;4993308;28;20027;-79
2021/06/04 02:04:50;;;;;;;8.75;7.90;;;17.30;1.00;;;;;;4993899;28;20097;-79
2021/06/04 02:07:20;;;;;;;6.70;6.10;;;17.30;1.00;;;;;;4992311;28;20045;-78
2021/06/04 02:09:47;;;;;;;10.60;9.57;;;17.20;1.00;;;;;;4994138;28;20113;-79
2021/06/04 02:12:16;;;;;;;10.07;8.45;;;17.20;1.00;;;;;;4994261;28;20030;-78
2021/06/04 02:14:47;;;;;;;10.18;7.93;;;17.20;1.00;;;;;;4992828;28;20057;-79
2021/06/04 02:17:51;;;;;;;9.93;8.15;;;17.10;1.00;;;;;;4994809;28;20502;-77
2021/06/04 02:20:20;;;;;;;9.23;8.32;;;17.20;1.00;;;;;;4994640;28;20038;-77
2021/06/04 02:23:05;;;;;;;7.55;6.80;;;17.20;1.00;;;;;;4993630;28;20098;-78
2021/06/04 02:25:53;;;;;;;7.68;6.43;;;17.30;1.00;;;;;;4993950;28;20026;-78
2021/06/04 02:28:31;;;;;;;7.88;6.97;;;17.20;1.00;;;;;;4993995;28;20037;-77
2021/06/04 02:31:29;;;;;;;5.80;5.40;;;17.20;1.00;;;;;;4994307;28;20031;-78
2021/06/04 02:34:16;;;;;;;8.73;6.18;;;17.10;1.00;;;;;;4994087;28;20411;-78
2021/06/04 02:36:49;;;;;;;6.13;5.60;;;17.00;1.00;;;;;;4992792;28;20117;-79
2021/06/04 02:39:23;;;;;;;6.68;6.07;;;17.00;1.00;;;;;;4994562;28;20105;-77
2021/06/04 02:41:56;;;;;;;10.18;5.78;;;16.90;1.00;;;;;;4992510;28;20030;-77
2021/06/04 02:44:27;;;;;;;9.55;5.65;;;16.90;1.00;;;;;;5008506;28;20483;-81
2021/06/04 02:47:05;;;;;;;6.40;5.88;;;16.90;1.00;;;;;;4993922;28;20022;-78
2021/06/04 02:49:34;;;;;;;7.53;4.95;;;16.80;1.00;;;;;;4994055;28;20042;-79
2021/06/04 02:52:09;;;;;;;7.50;5.63;;;16.80;1.00;;;;;;4994928;28;20022;-79
2021/06/04 02:54:39;;;;;;;6.20;5.20;;;16.80;1.00;;;;;;4994656;28;20022;-78
2021/06/04 02:57:09;;;;;;;9.35;6.15;;;16.70;1.00;;;;;;4993508;28;20069;-78
2021/06/04 02:59:46;;;;;;;5.22;4.82;;;16.80;1.00;;;;;;4993997;28;20026;-77
2021/06/04 03:02:18;;;;;;;6.32;4.50;;;16.80;1.00;;;;;;4993663;28;20035;-78
2021/06/04 03:04:47;;;;;;;4.88;4.45;;;16.70;1.00;;;;;;4994057;28;20026;-78
2021/06/04 03:07:18;;;;;;;4.30;3.90;;;16.70;1.00;;;;;;4991674;28;20034;-77
2021/06/04 03:09:45;;;;;;;4.82;4.35;;;16.70;1.00;;;;;;4991806;28;20132;-78
2021/06/04 03:12:16;;;;;;;4.97;4.38;;;16.70;1.00;;;;;;4992968;28;20026;-78
2021/06/04 03:14:44;;;;;;;5.05;4.43;;;16.80;1.00;;;;;;4992931;28;20081;-78
2021/06/04 03:17:11;;;;;;;3.67;3.38;;;17.00;1.00;;;;;;4993133;28;20030;-78
2021/06/04 03:19:37;;;;;;;3.95;3.35;;;17.00;1.00;;;;;;4993528;28;20399;-77
2021/06/04 03:22:30;;;;;;;4.15;3.72;;;17.10;1.00;;;;;;4991437;28;20125;-78
2021/06/04 03:25:19;;;;;;;4.25;3.95;;;17.10;1.00;;;;;;4992964;28;20398;-78
2021/06/04 03:27:46;;;;;;;5.13;3.83;;;17.00;1.00;;;;;;4992645;28;20498;-78
2021/06/04 03:30:14;;;;;;;4.22;3.80;;;16.90;1.00;;;;;;4995239;28;20032;-79
2021/06/04 03:32:39;;;;;;;3.60;3.30;;;17.00;1.00;;;;;;4992647;28;20431;-78
2021/06/04 03:35:08;;;;;;;5.57;3.88;;;16.90;1.00;;;;;;4992879;28;20065;-79
2021/06/04 03:37:36;;;;;;;4.72;3.70;;;16.90;1.00;;;;;;4992260;28;20530;-79
2021/06/04 03:40:06;;;;;;;5.32;4.03;;;17.00;1.00;;;;;;4997293;28;20104;-78
2021/06/04 03:42:33;;;;;;;4.20;3.78;;;17.00;1.00;;;;;;4997107;28;20566;-78
2021/06/04 03:44:59;;;;;;;6.95;3.80;;;17.00;1.00;;;;;;5003894;28;20038;-78
2021/06/04 03:47:26;;;;;;;5.25;3.65;;;17.00;1.00;;;;;;5015510;28;20099;-78
2021/06/04 03:49:52;;;;;;;5.93;3.65;;;17.10;1.00;;;;;;5011449;28;20133;-78
2021/06/04 03:52:21;;;;;;;4.38;3.97;;;17.10;1.00;;;;;;4997344;28;20070;-78
2021/06/04 03:54:50;;;;;;;5.78;3.80;;;17.20;1.00;;;;;;4996997;28;20045;-79
2021/06/04 03:57:20;;;;;;;5.53;4.18;;;17.20;1.00;;;;;;4996154;28;20372;-78
2021/06/04 03:59:46;;;;;;;4.80;4.28;;;17.30;1.00;;;;;;4996473;28;20389;-77
2021/06/04 04:02:16;;;;;;;4.55;4.15;;;17.40;1.00;;;;;;4996567;28;20112;-79
2021/06/04 04:04:42;;;;;;;6.25;4.78;;;17.60;1.00;;;;;;4995821;28;20113;-79
2021/06/04 04:07:09;;;;;;;5.57;3.90;;;17.80;1.00;;;;;;4995618;28;20121;-78
2021/06/04 04:09:34;;;;;;;4.35;3.95;;;18.00;1.00;;;;;;4995548;28;20050;-78
2021/06/04 04:12:00;;;;;;;6.63;5.13;;;18.10;1.00;;;;;;4995927;28;20026;-79
2021/06/04 04:14:27;;;;;;;7.90;4.80;;;18.20;1.00;;;;;;4995992;28;20022;-78
2021/06/04 04:16:53;;;;;;;7.07;4.82;;;18.30;1.00;;;;;;4994855;28;20026;-78
2021/06/04 04:19:20;;;;;;;8.52;5.38;;;18.50;1.00;;;;;;4995304;28;20443;-79
2021/06/04 04:21:51;;;;;;;7.47;5.28;;;18.60;1.00;;;;;;4994735;28;20026;-78
2021/06/04 04:24:24;;;;;;;4.97;4.10;;;18.60;1.00;;;;;;4994563;28;20022;-78
2021/06/04 04:26:50;;;;;;;4.53;3.83;;;18.80;1.00;;;;;;4996028;28;20037;-79
2021/06/04 04:29:15;;;;;;;4.55;4.10;;;19.00;1.00;;;;;;4997114;28;20394;-80
2021/06/04 04:31:47;;;;;;;8.07;5.22;;;19.30;1.00;;;;;;4998290;28;20042;-79
2021/06/04 04:34:13;;;;;;;10.93;5.20;;;20.00;99.90;;;;;;4998678;28;20431;-78
2021/06/04 04:36:44;;;;;;;5.10;4.60;;;20.30;99.90;;;;;;4996947;28;20058;-78
2021/06/04 04:39:14;;;;;;;7.97;5.27;;;20.20;99.90;;;;;;4994361;28;20390;-78
2021/06/04 04:41:40;;;;;;;8.77;4.97;;;20.00;99.90;;;;;;5011037;28;20053;-79
2021/06/04 04:44:07;;;;;;;5.93;4.68;;;19.80;99.90;;;;;;4995489;28;20085;-78
2021/06/04 04:46:32;;;;;;;9.18;4.47;;;20.00;99.90;;;;;;5010897;28;20026;-77
2021/06/04 04:48:58;;;;;;;4.53;4.07;;;19.90;99.90;;;;;;4995309;28;20031;-78
2021/06/04 04:51:27;;;;;;;5.05;4.55;;;19.80;99.90;;;;;;4993129;28;20026;-78
2021/06/04 04:53:53;;;;;;;6.60;4.50;;;19.90;99.90;;;;;;4995703;28;20495;-78
2021/06/04 04:56:21;;;;;;;6.15;4.45;;;20.00;99.90;;;;;;4995055;28;20026;-77
2021/06/04 04:58:47;;;;;;;5.65;4.32;;;20.10;99.90;;;;;;5010717;28;20113;-79
2021/06/04 05:01:14;;;;;;;4.30;3.90;;;20.40;99.90;;;;;;4995484;28;20046;-79
2021/06/04 05:03:39;;;;;;;5.90;4.40;;;20.20;99.90;;;;;;4996395;28;20454;-78
2021/06/04 05:06:06;;;;;;;5.88;5.15;;;20.00;99.90;;;;;;5010174;28;20041;-77
2021/06/04 05:08:32;;;;;;;4.43;4.03;;;19.80;99.90;;;;;;4993570;28;20441;-78
2021/06/04 05:10:58;;;;;;;4.50;4.05;;;19.60;99.90;;;;;;4995049;28;20026;-77
2021/06/04 05:13:24;;;;;;;10.27;4.65;;;20.00;99.90;;;;;;4995352;28;20053;-78
2021/06/04 05:15:50;;;;;;;5.40;4.90;;;20.10;99.90;;;;;;4995079;28;20019;-79
2021/06/04 05:18:16;;;;;;;6.25;4.53;;;20.20;99.90;;;;;;4995358;28;20032;-78
2021/06/04 05:20:44;;;;;;;6.18;4.50;;;20.20;99.90;;;;;;4995109;28;20058;-78
2021/06/04 05:23:11;;;;;;;8.02;4.88;;;20.00;99.90;;;;;;4994050;28;20030;-79
2021/06/04 05:25:42;;;;;;;10.40;7.18;;;19.80;99.90;;;;;;4995154;28;20037;-79
2021/06/04 05:28:10;;;;;;;6.65;5.88;;;19.70;1.00;;;;;;4994942;28;20033;-78
2021/06/04 05:30:38;;;;;;;6.40;5.80;;;19.80;99.90;;;;;;4994518;28;20030;-80
2021/06/04 05:33:06;;;;;;;9.63;5.00;;;19.80;1.00;;;;;;4994364;28;20014;-78
2021/06/04 05:35:32;;;;;;;9.43;5.72;;;19.90;99.90;;;;;;5012200;28;20019;-78
2021/06/04 05:37:58;;;;;;;5.68;5.18;;;19.80;1.00;;;;;;5004630;28;20554;-79
2021/06/04 05:40:28;;;;;;;7.45;5.45;;;19.90;1.00;;;;;;4995330;28;20058;-79
2021/06/04 05:42:55;;;;;;;5.20;4.70;;;19.80;1.00;;;;;;4994845;28;20455;-78
2021/06/04 05:45:23;;;;;;;5.40;4.95;;;19.70;1.00;;;;;;4994876;28;20022;-79
2021/06/04 05:47:49;;;;;;;5.53;5.03;;;20.00;1.00;;;;;;4993657;28;20033;-78
2021/06/04 05:50:24;;;;;;;6.20;5.65;;;20.40;99.90;;;;;;4994049;28;20487;-79
2021/06/04 05:52:50;;;;;;;5.53;5.07;;;20.60;99.90;;;;;;4994880;28;20023;-79
2021/06/04 05:55:21;;;;;;;6.53;5.55;;;21.20;99.90;;;;;;5009298;28;20069;-78
2021/06/04 05:57:46;;;;;;;5.75;5.25;;;21.50;99.90;;;;;;4992943;28;20031;-78
2021/06/04 06:00:20;;;;;;;5.95;5.35;;;22.00;99.90;;;;;;4994752;28;20513;-79
2021/06/04 06:02:48;;;;;;;5.43;4.93;;;22.30;99.90;;;;;;4993913;28;20026;-79
2021/06/04 06:05:14;;;;;;;5.20;4.55;;;22.80;99.90;;;;;;4992667;28;20053;-78
2021/06/04 06:07:39;;;;;;;7.28;5.10;;;22.90;99.90;;;;;;4994629;28;20058;-78
2021/06/04 06:10:06;;;;;;;5.85;5.13;;;23.00;1.00;;;;;;4994421;28;20026;-79
2021/06/04 06:12:31;;;;;;;5.80;5.20;;;22.90;1.00;;;;;;4993952;28;20061;-78
2021/06/04 06:15:01;;;;;;;5.93;5.43;;;22.90;1.00;;;;;;4994699;28;20023;-78
2021/06/04 06:17:27;;;;;;;5.78;4.78;;;22.90;1.00;;;;;;4993975;28;20038;-77
2021/06/04 06:19:53;;;;;;;6.57;5.00;;;22.60;1.00;;;;;;4994657;28;20696;-79
2021/06/04 06:22:18;;;;;;;5.88;4.78;;;22.40;1.00;;;;;;4994038;28;20034;-79
2021/06/04 06:24:44;;;;;;;6.10;4.93;;;22.00;47.60;;;;;;4993793;28;20031;-78
2021/06/04 06:27:09;;;;;;;6.32;5.25;;;21.90;99.90;;;;;;4993500;28;20050;-79
2021/06/04 06:29:36;;;;;;;6.32;5.00;;;21.80;99.90;;;;;;4994093;28;20422;-78
2021/06/04 06:32:04;;;;;;;5.45;4.80;;;22.20;99.90;;;;;;4993725;28;20021;-79
2021/06/04 06:34:31;;;;;;;5.53;4.95;;;22.20;83.00;;;;;;4993418;28;20076;-77
2021/06/04 06:36:57;;;;;;;5.45;4.95;;;22.30;82.80;;;;;;4993080;28;20510;-77
2021/06/04 06:39:29;;;;;;;7.55;4.55;;;22.40;45.30;;;;;;4993416;28;20026;-79
2021/06/04 06:41:56;;;;;;;4.53;4.13;;;22.20;80.20;;;;;;4992595;28;20053;-78
2021/06/04 06:44:23;;;;;;;7.13;4.45;;;22.50;10.60;;;;;;4993333;28;20022;-79
2021/06/04 06:46:51;;;;;;;6.57;3.90;;;22.80;1.00;;;;;;4992918;28;20102;-78
2021/06/04 06:49:17;;;;;;;5.20;4.10;;;22.70;1.00;;;;;;4992757;28;20034;-78
2021/06/04 06:51:43;;;;;;;5.10;4.30;;;22.30;1.00;;;;;;4993361;28;20018;-79
2021/06/04 06:54:15;;;;;;;6.13;4.78;;;22.10;1.00;;;;;;4991908;28;20383;-78
2021/06/04 06:56:41;;;;;;;6.30;3.90;;;22.10;1.00;;;;;;4992200;28;20034;-78
2021/06/04 06:59:07;;;;;;;4.93;3.40;;;22.20;1.00;;;;;;4993771;28;20033;-78
2021/06/04 07:01:33;;;;;;;6.68;3.63;;;22.10;1.00;;;;;;4993804;28;20390;-78
2021/06/04 07:04:00;;;;;;;5.82;3.97;;;21.90;1.00;;;;;;4993834;28;20052;-79
2021/06/04 07:06:28;;;;;;;4.03;3.63;;;21.80;1.00;;;;;;4993972;28;20030;-78
2021/06/04 07:08:56;;;;;;;8.10;3.47;;;21.70;1.00;;;;;;4992470;28;20030;-78
2021/06/04 07:11:23;;;;;;;3.70;3.03;;;21.80;1.00;;;;;;4993862;28;20390;-79
2021/06/04 07:13:51;;;;;;;3.90;3.05;;;21.80;1.00;;;;;;4995417;28;20033;-78
2021/06/04 07:16:17;;;;;;;3.47;3.17;;;21.90;1.00;;;;;;4997373;28;20022;-77
2021/06/04 07:18:43;;;;;;;3.53;3.22;;;21.90;1.00;;;;;;4996139;28;20029;-78
2021/06/04 07:21:12;;;;;;;3.67;3.38;;;22.00;1.00;;;;;;4996965;28;20105;-77
2021/06/04 07:23:38;;;;;;;4.10;3.05;;;21.90;1.00;;;;;;4996800;28;20030;-78
2021/06/04 07:26:05;;;;;;;3.30;2.58;;;21.90;1.00;;;;;;5012952;28;20034;-79
2021/06/04 07:28:32;;;;;;;2.90;2.47;;;22.00;1.00;;;;;;4995677;28;20030;-79
2021/06/04 07:31:00;;;;;;;4.07;2.78;;;21.90;99.90;;;;;;4997386;28;20076;-78
2021/06/04 07:33:34;;;;;;;4.53;3.35;;;22.00;99.90;;;;;;4996344;28;20022;-78
2021/06/04 07:36:05;;;;;;;5.50;3.03;;;22.20;99.90;;;;;;4997041;28;20085;-78
2021/06/04 07:38:31;;;;;;;6.05;3.67;;;22.40;99.90;;;;;;4997548;28;20073;-78
2021/06/04 07:40:59;;;;;;;3.10;2.80;;;22.50;99.90;;;;;;4996802;28;20038;-78
2021/06/04 07:43:29;;;;;;;3.88;2.20;;;22.70;99.90;;;;;;4996613;28;20027;-79
2021/06/04 07:45:56;;;;;;;2.97;2.60;;;22.70;99.90;;;;;;4996271;28;20027;-79
2021/06/04 07:48:22;;;;;;;3.65;1.98;;;22.90;99.90;;;;;;4995737;28;20312;-78
2021/06/04 07:50:50;;;;;;;4.22;1.75;;;23.30;99.90;;;;;;5011944;28;20022;-78
2021/06/04 07:53:18;;;;;;;3.28;1.70;;;23.80;1.00;;;;;;4995448;28;20018;-79
2021/06/04 07:55:45;;;;;;;3.45;1.80;;;23.50;95.50;;;;;;4994888;28;20117;-78
2021/06/04 07:58:11;;;;;;;2.92;1.52;;;23.40;99.90;;;;;;4996449;28;20084;-77
2021/06/04 08:00:38;;;;;;;5.00;1.48;;;23.50;99.90;;;;;;4997386;28;20037;-78
2021/06/04 08:03:05;;;;;;;3.83;1.85;;;23.40;99.90;;;;;;4996597;28;20482;-78
2021/06/04 08:05:32;;;;;;;2.28;1.98;;;23.60;1.00;;;;;;4996388;28;20030;-77
2021/06/04 08:07:58;;;;;;;2.80;1.38;;;23.60;99.90;;;;;;4996689;28;20038;-79
2021/06/04 08:10:24;;;;;;;1.77;1.20;;;23.40;99.90;;;;;;4996122;28;20140;-78
2021/06/04 08:12:51;;;;;;;4.80;1.70;;;23.80;99.90;;;;;;4996422;28;20405;-78
2021/06/04 08:15:31;;;;;;;1.95;1.60;;;24.50;99.90;;;;;;4996303;28;20069;-78
2021/06/04 08:17:58;;;;;;;2.28;1.33;;;25.20;99.90;;;;;;4997007;28;20399;-78
2021/06/04 08:20:26;;;;;;;1.80;1.40;;;25.30;1.00;;;;;;5011708;28;20097;-78
2021/06/04 08:22:57;;;;;;;3.58;1.67;;;25.40;1.00;;;;;;5012383;28;20037;-78
2021/06/04 08:25:26;;;;;;;2.17;1.60;;;25.70;99.90;;;;;;5010991;28;20034;-78
2021/06/04 08:27:52;;;;;;;2.35;1.70;;;25.90;99.90;;;;;;4995503;28;20491;-78
2021/06/04 08:30:18;;;;;;;2.88;1.30;;;26.30;1.00;;;;;;4995224;28;20032;-79
2021/06/04 08:32:51;;;;;;;2.63;1.95;;;26.60;99.90;;;;;;5011633;28;20066;-77
2021/06/04 08:35:18;;;;;;;2.38;1.65;;;26.50;99.90;;;;;;4995833;28;20027;-78
2021/06/04 08:37:44;;;;;;;3.30;1.83;;;26.60;99.90;;;;;;4994346;28;20034;-78
2021/06/04 08:40:14;;;;;;;2.50;2.17;;;26.60;99.90;;;;;;4996020;28;20088;-79
2021/06/04 08:42:49;;;;;;;3.03;1.83;;;26.30;99.90;;;;;;4996264;28;20034;-78
2021/06/04 08:45:23;;;;;;;3.03;1.63;;;26.20;99.90;;;;;;4995830;28;20101;-79
2021/06/04 08:47:57;;;;;;;2.50;2.03;;;26.40;99.90;;;;;;4995036;28;20075;-77
2021/06/04 08:51:03;;;;;;;3.45;2.05;;;26.30;31.30;;;;;;4993943;28;20038;-77
2021/06/04 08:53:42;;;;;;;3.15;2.47;;;26.60;10.60;;;;;;4996038;28;20030;-78
2021/06/04 08:56:15;;;;;;;4.68;3.10;;;26.40;99.90;;;;;;4995298;28;20108;-79
2021/06/04 08:58:56;;;;;;;5.65;2.33;;;26.50;99.90;;;;;;4994134;28;20022;-77
2021/06/04 09:01:27;;;;;;;4.80;2.72;;;26.40;99.90;;;;;;4995426;28;20019;-78
2021/06/04 09:03:58;;;;;;;2.75;2.53;;;26.40;99.90;;;;;;4995445;28;20483;-78
2021/06/04 09:06:46;;;;;;;3.33;2.53;;;26.50;99.90;;;;;;5003876;28;20366;-77
2021/06/04 09:09:44;;;;;;;6.53;3.53;;;26.50;99.90;;;;;;5004972;28;20049;-78
2021/06/04 09:12:23;;;;;;;6.40;2.92;;;26.70;99.90;;;;;;5005614;28;20078;-77
2021/06/04 09:14:50;;;;;;;6.80;3.67;;;26.50;99.90;;;;;;5005170;28;20060;-78
2021/06/04 09:17:52;;;;;;;5.20;2.70;;;26.40;1.00;;;;;;5004823;28;20057;-76
2021/06/04 09:20:34;;;;;;;5.03;2.95;;;26.30;1.00;;;;;;5002802;28;20057;-78
2021/06/04 09:23:04;;;;;;;5.97;3.38;;;26.20;1.00;;;;;;5005529;28;20061;-77
2021/06/04 09:25:32;;;;;;;3.72;2.63;;;26.40;1.00;;;;;;5001275;28;20084;-81
2021/06/04 09:28:10;;;;;;;4.97;2.53;;;26.30;1.00;;;;;;4993562;28;20026;-79
2021/06/04 09:30:40;;;;;;;4.47;2.45;;;26.30;25.30;;;;;;4993320;28;20490;-78
2021/06/04 09:33:26;;;;;;;;;;;26.40;59.40;;;;;;4994695;28;20109;-78
2021/06/04 09:36:13;;;;;;;3.83;2.85;;;26.50;79.70;;;;;;4992918;28;19906;-77
2021/06/04 09:38:54;;;;;;;4.18;3.78;;;26.70;1.00;;;;;;4993742;28;20030;-79
2021/06/04 09:41:33;;;;;;;8.30;3.13;;;26.70;1.00;;;;;;4994666;28;20026;-78
2021/06/04 09:44:10;;;;;;;6.30;1.98;;;26.60;1.00;;;;;;5009776;28;20440;-78
2021/06/04 09:46:48;;;;;;;4.45;1.88;;;26.70;99.90;;;;;;4994010;28;20041;-79
2021/06/04 09:49:31;;;;;;;2.22;2.03;;;26.80;99.90;;;;;;4993053;28;20026;-78
2021/06/04 09:52:22;;;;;;;9.23;2.63;;;26.70;99.90;;;;;;4994829;28;20023;-78
2021/06/04 09:55:04;;;;;;;3.40;2.10;;;26.60;1.00;;;;;;4994674;28;20022;-79
2021/06/04 09:57:38;;;;;;;5.68;2.40;;;26.60;1.00;;;;;;4992698;28;20022;-79
2021/06/04 10:00:32;;;;;;;2.55;2.10;;;26.60;25.70;;;;;;4994926;28;20085;-79
2021/06/04 10:03:33;;;;;;;4.35;2.13;;;26.80;1.00;;;;;;5010166;28;20026;-78
2021/06/04 10:06:10;;;;;;;4.70;1.98;;;26.60;99.90;;;;;;4992635;28;20041;-80
2021/06/04 10:08:57;;;;;;;3.03;1.55;;;26.40;99.90;;;;;;4992779;28;20407;-79
2021/06/04 10:11:39;;;;;;;3.40;1.70;;;26.80;99.90;;;;;;4992604;28;20037;-80
2021/06/04 10:14:20;;;;;;;4.30;1.88;;;26.90;99.90;;;;;;4993920;28;20041;-78
2021/06/04 10:19:25;;;;;;;2.60;2.03;;;26.40;99.90;;;;;;4994145;28;20391;-80
2021/06/04 10:22:27;;;;;;;3.47;2.33;;;26.90;99.90;;;;;;4997056;28;20050;-78
2021/06/04 10:25:12;;;;;;;3.95;1.63;;;27.20;1.00;;;;;;4994786;28;20433;-79
2021/06/04 10:27:51;;;;;;;4.28;2.22;;;27.20;1.00;;;;;;4993054;28;20041;-78
2021/06/04 10:30:35;;;;;;;3.90;2.28;;;27.30;1.00;;;;;;4992666;28;20128;-79
2021/06/04 10:33:33;;;;;;;2.47;2.22;;;27.30;1.00;;;;;;5010620;28;20022;-79
2021/06/04 10:36:00;;;;;;;3.50;2.28;;;27.70;1.00;;;;;;5014327;28;20023;-77
2021/06/04 10:38:36;;;;;;;3.25;1.80;;;27.40;1.00;;;;;;5016411;28;20014;-78
2021/06/04 10:41:48;;;;;;;4.05;2.30;;;27.70;99.90;;;;;;5017002;28;20010;-78
2021/06/04 10:44:21;;;;;;;2.53;1.92;;;27.80;99.90;;;;;;5032612;28;20038;-79
2021/06/04 10:47:01;;;;;;;3.88;2.25;;;28.00;99.90;;;;;;5017117;28;20125;-78
2021/06/04 10:49:40;;;;;;;2.38;1.85;;;26.90;99.90;;;;;;5016662;28;20031;-77
2021/06/04 10:52:36;;;;;;;4.30;2.42;;;26.70;99.90;;;;;;5017320;28;20034;-78
2021/06/04 10:55:24;;;;;;;5.28;2.30;;;26.30;1.00;;;;;;5007071;28;20113;-77
2021/06/04 10:58:15;;;;;;;2.33;2.05;;;26.00;1.00;;;;;;4995691;28;20054;-80
2021/06/04 11:00:43;;;;;;;3.70;2.30;;;25.80;1.00;;;;;;4994471;28;20022;-78
2021/06/04 11:03:25;;;;;;;6.75;2.83;;;25.70;18.70;;;;;;4998860;28;20426;-78
2021/06/04 11:05:51;;;;;;;5.28;2.58;;;25.60;44.90;;;;;;4995944;28;20038;-78
2021/06/04 11:08:31;;;;;;;5.78;2.72;;;25.80;57.50;;;;;;4992332;28;20495;-77
2021/06/04 11:11:06;;;;;;;4.15;2.05;;;25.70;75.70;;;;;;4992932;28;20037;-76
2021/06/04 11:13:49;;;;;;;3.78;2.78;;;26.00;45.60;;;;;;4992101;28;20027;-77
2021/06/04 11:16:30;;;;;;;3.65;2.25;;;26.20;36.40;;;;;;4992346;28;20026;-77
2021/06/04 11:19:05;;;;;;;3.75;2.40;;;26.00;55.60;;;;;;4992044;28;20491;-77
2021/06/04 11:21:55;;;;;;;2.58;2.30;;;26.00;87.80;;;;;;4993583;28;20027;-77
2021/06/04 11:24:33;;;;;;;4.78;2.60;;;26.00;83.10;;;;;;4993302;28;20491;-78
2021/06/04 11:27:36;;;;;;;3.58;2.55;;;26.00;84.20;;;;;;4997440;28;20046;-83
2021/06/04 11:30:08;;;;;;;4.40;2.72;;;26.10;99.90;;;;;;4991633;28;20026;-80
2021/06/04 11:32:49;;;;;;;14.43;5.05;;;26.00;99.90;;;;;;4994288;28;20069;-80
2021/06/04 11:35:14;;;;;;;;;;;25.40;27.80;;;;;;4994054;28;20022;-79
2021/06/04 11:37:58;;;;;;;4.55;3.38;;;25.00;99.90;;;;;;4994356;28;19960;-80
2021/06/04 11:40:36;;;;;;;8.82;4.78;;;24.50;99.90;;;;;;4994423;28;20070;-79
2021/06/04 11:43:08;;;;;;;5.28;4.15;;;23.70;1.00;;;;;;4993801;28;20076;-78
2021/06/04 11:45:36;;;;;;;6.45;3.00;;;23.40;99.90;;;;;;4994988;28;20026;-78
2021/06/04 11:48:20;;;;;;;7.65;3.05;;;23.60;1.00;;;;;;4992326;28;20125;-78
2021/06/04 11:50:47;;;;;;;6.72;3.45;;;23.60;99.90;;;;;;4993967;28;20112;-77
2021/06/04 11:53:26;;;;;;;9.75;3.95;;;23.20;1.00;;;;;;4994363;28;20029;-75
2021/06/04 11:55:54;;;;;;;4.78;3.38;;;22.30;99.90;;;;;;5003801;28;20019;-76
2021/06/04 11:58:28;;;;;;;5.00;3.70;;;20.90;99.90;;;;;;5008976;28;20026;-75
2021/06/04 12:01:22;;;;;;;5.68;3.15;;;20.90;99.90;;;;;;5014850;28;20027;-75
2021/06/04 12:03:59;;;;;;;3.92;2.67;;;20.80;1.00;;;;;;5012216;28;20110;-76
2021/06/04 12:06:26;;;;;;;4.45;2.97;;;20.80;1.00;;;;;;5012421;28;20022;-75
2021/06/04 12:08:56;;;;;;;5.65;3.47;;;20.80;1.00;;;;;;5010337;28;20026;-76
2021/06/04 12:11:22;;;;;;;4.57;3.20;;;20.60;1.00;;;;;;5006111;28;20030;-76
2021/06/04 12:13:48;;;;;;;2.75;2.40;;;20.70;1.00;;;;;;5008239;28;20026;-75
2021/06/04 12:16:25;;;;;;;4.82;3.08;;;20.80;1.00;;;;;;5004571;28;20169;-77
2021/06/04 12:19:14;;;;;;;25.67;22.23;;;20.80;1.00;;;;;;5007462;28;20610;-77
2021/06/04 12:24:21;;;;;;;3.80;3.33;;;20.70;1.00;;;;;;4996555;28;20046;-77
2021/06/04 12:26:53;;;;;;;4.65;4.03;;;20.70;1.00;;;;;;4994289;28;20060;-75
2021/06/04 12:29:22;;;;;;;5.93;3.92;;;20.80;1.00;;;;;;4994254;28;20022;-77
2021/06/04 12:31:53;;;;;;;8.23;3.80;;;20.70;1.00;;;;;;4994110;28;20030;-78
2021/06/04 12:37:10;;;;;;;8.07;3.80;;;20.60;1.00;;;;;;5013880;28;20057;-77
2021/06/04 12:39:51;;;;;;;6.45;3.78;;;20.50;1.00;;;;;;5012356;28;20033;-76
2021/06/04 12:42:25;;;;;;;33.75;5.68;;;20.40;1.00;;;;;;5018329;28;20050;-76
2021/06/04 12:44:59;;;;;;;27.77;6.40;;;20.20;1.00;;;;;;5018526;28;20022;-77
2021/06/04 12:47:37;;;;;;;41.15;5.47;;;19.90;1.00;;;;;;4998306;28;20045;-77
2021/06/04 12:50:05;;;;;;;13.02;3.30;;;19.60;1.00;;;;;;4997480;28;20034;-76
2021/06/04 12:52:31;;;;;;;12.52;3.80;;;19.60;1.00;;;;;;4995214;28;20447;-76
2021/06/04 12:55:12;;;;;;;6.43;2.85;;;19.50;1.00;;;;;;4995498;28;20035;-76
2021/06/04 12:57:38;;;;;;;6.80;3.15;;;19.50;1.00;;;;;;4994082;28;20407;-76
2021/06/04 13:00:29;;;;;;;9.20;3.58;;;19.50;1.00;;;;;;4994991;28;20026;-77
2021/06/04 13:03:05;;;;;;;7.68;3.03;;;19.50;1.00;;;;;;4994814;28;20271;-77
2021/06/04 13:05:31;;;;;;;8.93;3.83;;;19.50;1.00;;;;;;4994420;28;20035;-78
2021/06/04 13:08:07;;;;;;;7.97;4.30;;;19.70;1.00;;;;;;4994803;28;20027;-77
2021/06/04 13:10:36;;;;;;;14.60;6.35;;;19.80;1.00;;;;;;4994422;28;20019;-77
2021/06/04 13:13:21;;;;;;;7.38;4.15;;;19.90;1.00;;;;;;5009210;28;20018;-77
2021/06/04 13:15:47;;;;;;;6.43;3.97;;;20.00;1.00;;;;;;4997158;28;20090;-76
2021/06/04 13:18:18;;;;;;;7.35;4.55;;;20.20;1.00;;;;;;5004141;28;20121;-76
2021/06/04 13:20:50;;;;;;;9.13;7.15;;;20.40;1.00;;;;;;4995372;28;20030;-76
2021/06/04 13:23:16;;;;;;;7.35;5.60;;;20.50;1.00;;;;;;4993723;28;20049;-76
2021/06/04 13:25:44;;;;;;;5.53;4.32;;;20.70;1.00;;;;;;4994166;28;20514;-78
2021/06/04 13:28:20;;;;;;;22.60;12.45;;;20.80;1.00;;;;;;4992949;28;20029;-76
2021/06/04 13:30:51;;;;;;;9.50;6.40;;;21.00;1.00;;;;;;4993570;28;20578;-77